Aérodrome :
LOGIN :

S'inscrire | Disclaimer

   EN    FR    IT 

 










Légende :    VFR   VFR Marginal   IFR   IFR Intensif   IFR Très Intensif
Visi : 
Plafond : 
>= 8 km
>= 3000ft
5 à 8 km
1000 à 3000 ft
1500m à 5 km
500 à 1000 ft
800 à 1500m
200 à 500 ft
< 800m
< 200 ft
Symboles :   Orages  Brouillard  Fortes neiges  Fortes précipitations  Vent > 20 kt
SIGMETs :   Divers  Orages  Givrage  Turbulence  Onde Orograph.  Cendres Volcan.






- Altitude de l'aérodrome : 274 ft
- Code IATA : PUY


LDPL - Pula

DERNIER METAR :
  • 270200Z VRB02KT 4000 MIFG BR FEW004 SCT020 04/04 Q1019

METARs EXPIRÉS :
  • 270130Z 06001KT 8000 MIFG FEW004 SCT020 04/04 Q1019
  • 270100Z VRB01KT 9999 SCT019 BKN030 05/05 Q1019
  • 270030Z 30004KT 9999 FEW014 BKN030 06/06 Q1019
  • 270000Z 28006KT 9999 FEW014 SCT024 OVC030 07/06 Q1019
  • 262330Z 27003KT 9999 FEW014 SCT024 OVC030 08/07 Q1019

TAF TAF LDPL
Valide du 27 à 00h jusqu'au 28 à 00h UTC


262325Z 2700/2800 27005KT 9000 BKN020 TX10/2713Z TN05/2703Z
PROB40
TEMPO 2700/2714 BKN010
PROB30 2703/2708 2000 BR
PROB40 2718/2800 4000 MIFG BR BKN010
PROB30
TEMPO 2721/2800 13008KT 2000 -RA BR BKN005



MET'MAP, la Météo Aéronautique d'un coup d'oeil ! - Copyright ORBIFLY Décembre 2007 - Disclaimer

ORBIFLY MET'MAP TEAM :

Programmation & Développement : Alexandra Zaïnal
Sur une idée originale de : Baudouin d'Aumeries
Assistance à la programmation : Marc-Olivier Méhu
Soutien technique & logistique : Manuel Goepfert

Contact : metmap@orbifly.com




SOURCES & CREDITS :

   NOAA